Main page
METAR-TAF:

METAR-TAF

Airports :

Carrasco International Airport

Montevideo, Uruguay

latitude: 34-50S, longitude: 056-00W, elevation: 32 m

Current weather observation

The report was made 44 minutes ago, at 02:00 UTC
Wind 5 kt from the North
Temperature 9°C
Humidity 81%
Pressure 1024 hPa
Visibility 10 km or more
no clouds below 1500 m and no cumulonimbus

METAR: SUMU 190200Z 01005KT CAVOK 09/06 Q1024 NOSIG

Time: 23:44 (02:44 UTC)

Forecast

The report was made 3 hours and 44 minutes ago, at 23:00 UTC
Forecast valid from 19 at 00 UTC to 19 at 24 UTC
Wind 5 kt from the North/Northeast
Visibility 10 km or more
no clouds below 1500 m and no cumulonimbus

TAF: SUMU 182300Z 1900/1924 02005KT CAVOK TX17/1918Z TN08/1910Z

Weather observations and forecasts of more than 4000 airports (METAR and TAF reports).

The available stations are represented by yellow and red dots on the map.

Hover mouse over dot to see the name of the station.

Then click to see weather observations and forecasts.

To change the map : click on the green buttons with a black cross to zoom in, on the green button with a dash to zoom out, or on the green arrows for adjacent maps.


METAR-TAF: